Time;durP1;ratioP1;P1;durP2;ratioP2;P2;SDS_P1;SDS_P2;PMS_P1;PMS_P2;Temp;Humidity;BMP_temperature;BMP_pressure;BME280_temperature;BME280_humidity;BME280_pressure;Samples;Min_cycle;Max_cycle;Signal;HPM_P1;HPM_P2
2021/01/09 03:06:53;;;;;;;10.10;6.97;;;1.30;99.90;;;;;;6261542;22;20439;-89
2021/01/09 03:09:18;;;;;;;8.63;6.70;;;1.30;99.90;;;;;;6233612;22;20417;-89
2021/01/09 03:11:44;;;;;;;10.60;8.00;;;1.30;99.90;;;;;;6261470;22;20373;-89
2021/01/09 03:14:10;;;;;;;10.43;8.20;;;1.30;99.90;;;;;;6260816;22;20232;-89
2021/01/09 03:16:35;;;;;;;10.53;7.80;;;1.30;99.90;;;;;;6233919;22;20163;-89
2021/01/09 03:19:01;;;;;;;8.93;7.50;;;1.30;99.90;;;;;;6233423;22;20503;-88
2021/01/09 03:21:27;;;;;;;10.63;7.97;;;1.20;99.90;;;;;;6261150;22;20197;-89
2021/01/09 03:23:52;;;;;;;13.77;9.23;;;1.10;99.90;;;;;;6233619;22;20166;-88
2021/01/09 03:26:18;;;;;;;9.93;8.00;;;1.20;99.90;;;;;;6261570;22;21069;-89
2021/01/09 03:28:44;;;;;;;10.37;8.20;;;1.20;99.90;;;;;;6260727;22;20551;-88
2021/01/09 03:31:09;;;;;;;9.33;8.00;;;1.20;99.90;;;;;;6260584;22;20676;-89
2021/01/09 03:33:35;;;;;;;8.77;7.57;;;1.20;99.90;;;;;;6232525;22;20175;-89
2021/01/09 03:36:00;;;;;;;11.03;8.50;;;1.20;99.90;;;;;;6260947;22;20154;-90
2021/01/09 03:38:26;;;;;;;12.07;9.00;;;1.20;99.90;;;;;;6233202;22;20162;-89
2021/01/09 03:40:52;;;;;;;9.33;7.37;;;1.10;99.90;;;;;;6260040;22;20187;-89
2021/01/09 03:43:17;;;;;;;9.70;8.00;;;1.20;99.90;;;;;;6260552;22;20209;-89
2021/01/09 03:45:43;;;;;;;10.07;7.90;;;1.20;99.90;;;;;;6260727;22;20158;-89
2021/01/09 03:48:09;;;;;;;10.63;7.63;;;1.20;99.90;;;;;;6233645;22;20163;-89
2021/01/09 03:50:34;;;;;;;10.40;8.10;;;1.20;99.90;;;;;;6232272;22;20162;-89
2021/01/09 03:53:00;;;;;;;8.37;7.40;;;1.20;99.90;;;;;;6232543;22;20549;-90
2021/01/09 03:55:26;;;;;;;11.93;7.90;;;1.30;99.90;;;;;;6233385;22;20239;-90
2021/01/09 03:57:51;;;;;;;8.60;7.40;;;1.30;99.90;;;;;;6233060;22;20471;-90
2021/01/09 04:00:18;;;;;;;12.00;7.77;;;1.20;99.90;;;;;;6261082;22;20422;-89
2021/01/09 04:02:43;;;;;;;11.60;8.43;;;1.20;99.90;;;;;;6232723;22;20175;-88
2021/01/09 04:05:10;;;;;;;9.13;7.60;;;1.20;99.90;;;;;;6259152;22;20765;-88
2021/01/09 04:07:36;;;;;;;9.53;7.20;;;1.20;99.90;;;;;;6228905;23;20233;-88
2021/01/09 04:10:03;;;;;;;10.50;7.97;;;1.10;99.90;;;;;;6229863;22;20386;-89
2021/01/09 04:12:28;;;;;;;10.40;7.80;;;1.10;99.90;;;;;;6229716;22;20390;-89
2021/01/09 04:14:54;;;;;;;10.53;7.80;;;1.00;99.90;;;;;;6229412;23;20724;-89
2021/01/09 04:17:19;;;;;;;9.97;7.03;;;1.10;99.90;;;;;;6228132;23;20162;-88
2021/01/09 04:19:45;;;;;;;11.83;7.80;;;1.10;99.90;;;;;;6229236;23;20601;-88
2021/01/09 04:22:11;;;;;;;11.70;8.10;;;1.20;99.90;;;;;;6229219;23;20274;-89
2021/01/09 04:24:36;;;;;;;10.93;7.90;;;1.20;99.90;;;;;;6229221;23;20433;-88
2021/01/09 04:27:03;;;;;;;12.77;8.80;;;1.10;99.90;;;;;;6229796;23;20246;-91
2021/01/09 04:29:29;;;;;;;10.70;8.80;;;1.20;99.90;;;;;;6229818;22;20219;-89
2021/01/09 04:31:55;;;;;;;11.13;8.73;;;1.20;99.90;;;;;;6227554;23;20745;-90
2021/01/09 04:34:22;;;;;;;8.93;7.20;;;1.20;99.90;;;;;;6228812;22;20390;-89
2021/01/09 04:36:49;;;;;;;9.60;7.97;;;1.20;99.90;;;;;;6227594;23;20414;-88
2021/01/09 04:39:15;;;;;;;13.90;9.23;;;1.10;99.90;;;;;;6229909;22;20417;-88
2021/01/09 04:41:42;;;;;;;12.27;8.93;;;1.00;99.90;;;;;;6228336;23;20938;-88
2021/01/09 04:44:10;;;;;;;10.60;7.47;;;0.90;99.90;;;;;;6226399;23;20935;-89
2021/01/09 04:46:41;;;;;;;10.40;7.63;;;0.90;99.90;;;;;;6226854;23;20409;-87
2021/01/09 04:49:07;;;;;;;14.33;8.40;;;0.90;99.90;;;;;;6229774;23;20378;-88
2021/01/09 04:51:33;;;;;;;10.13;8.43;;;1.00;99.90;;;;;;6228784;22;20400;-87
2021/01/09 04:54:00;;;;;;;10.77;8.20;;;1.00;99.90;;;;;;6227149;23;20397;-87
2021/01/09 04:56:26;;;;;;;10.43;8.60;;;1.00;99.90;;;;;;6229734;22;20389;-87
2021/01/09 04:58:55;;;;;;;9.70;7.70;;;1.00;99.90;;;;;;6229576;23;20386;-87
2021/01/09 05:01:21;;;;;;;10.23;8.10;;;1.10;99.90;;;;;;6227316;23;20272;-88
2021/01/09 05:03:48;;;;;;;10.00;7.57;;;1.10;99.90;;;;;;6226515;23;20382;-88
2021/01/09 05:06:21;;;;;;;9.67;7.70;;;1.10;99.90;;;;;;6227411;23;20814;-88
2021/01/09 05:08:47;;;;;;;11.87;9.00;;;1.10;99.90;;;;;;6226906;23;21014;-89
2021/01/09 05:11:16;;;;;;;11.50;8.80;;;1.10;99.90;;;;;;6229110;22;20697;-89
2021/01/09 05:13:43;;;;;;;9.87;7.53;;;1.10;99.90;;;;;;6226197;23;20420;-89
2021/01/09 05:16:10;;;;;;;12.23;8.70;;;1.10;99.90;;;;;;6229639;22;20397;-89
2021/01/09 05:18:38;;;;;;;9.40;7.47;;;1.00;99.90;;;;;;6229128;22;20390;-88
2021/01/09 05:21:05;;;;;;;11.70;8.97;;;1.10;99.90;;;;;;6227034;23;20449;-88
2021/01/09 05:23:49;;;;;;;10.83;7.73;;;1.10;99.90;;;;;;6226452;23;20408;-89
2021/01/09 05:26:16;;;;;;;11.93;8.47;;;1.10;99.90;;;;;;6229074;22;20778;-87
2021/01/09 05:28:47;;;;;;;10.03;8.60;;;1.10;99.90;;;;;;6226969;23;20403;-88
2021/01/09 05:31:15;;;;;;;9.23;7.80;;;1.10;99.90;;;;;;6228671;22;20697;-87
2021/01/09 05:33:41;;;;;;;12.27;8.47;;;1.00;99.90;;;;;;6226311;23;20954;-87
2021/01/09 05:36:08;;;;;;;12.20;8.23;;;1.00;99.90;;;;;;6229549;23;20444;-88
2021/01/09 05:38:36;;;;;;;9.23;8.00;;;0.90;99.90;;;;;;6227784;23;20386;-89
2021/01/09 05:41:07;;;;;;;12.13;9.30;;;0.90;99.90;;;;;;6228969;22;20444;-88
2021/01/09 05:43:32;;;;;;;8.80;7.80;;;1.00;99.90;;;;;;6228012;22;20481;-87
2021/01/09 05:46:02;;;;;;;11.07;8.73;;;1.00;99.90;;;;;;6229384;23;20523;-87
2021/01/09 05:48:30;;;;;;;14.37;9.13;;;1.00;99.90;;;;;;6227215;23;20494;-88
2021/01/09 05:50:57;;;;;;;10.87;8.53;;;1.10;99.90;;;;;;6228009;22;20401;-88
2021/01/09 05:53:40;;;;;;;10.50;8.57;;;1.10;99.90;;;;;;6226237;23;20398;-87
2021/01/09 05:56:07;;;;;;;12.67;9.20;;;1.10;99.90;;;;;;6229422;22;20397;-87
2021/01/09 05:58:34;;;;;;;9.60;8.30;;;1.10;99.90;;;;;;6229735;22;20381;-86
2021/01/09 06:01:08;;;;;;;13.60;9.07;;;1.00;99.90;;;;;;6228554;22;20784;-87
2021/01/09 06:03:56;;;;;;;11.47;8.43;;;1.00;99.90;;;;;;6228405;22;20469;-87
2021/01/09 06:06:36;;;;;;;13.10;8.43;;;1.00;99.90;;;;;;6227505;23;20776;-87
2021/01/09 06:09:04;;;;;;;13.13;9.67;;;1.00;99.90;;;;;;6228356;23;20879;-87
2021/01/09 06:11:39;;;;;;;10.70;7.97;;;1.00;99.90;;;;;;6226611;23;20406;-87
2021/01/09 06:14:07;;;;;;;10.00;7.90;;;1.10;99.90;;;;;;6229040;22;20808;-88
2021/01/09 06:16:36;;;;;;;10.17;7.30;;;1.10;99.90;;;;;;6227406;23;20466;-89
2021/01/09 06:19:03;;;;;;;10.03;8.40;;;1.10;99.90;;;;;;6226782;23;20479;-89
2021/01/09 06:21:30;;;;;;;9.73;8.20;;;1.20;99.90;;;;;;6227278;23;20448;-89
2021/01/09 06:23:58;;;;;;;12.03;9.10;;;1.10;99.90;;;;;;6227655;23;20390;-90
2021/01/09 06:26:26;;;;;;;12.17;9.27;;;1.10;99.90;;;;;;6228944;22;20378;-89
2021/01/09 06:28:59;;;;;;;12.50;9.03;;;0.90;99.90;;;;;;6226466;23;20581;-87
2021/01/09 06:31:29;;;;;;;11.50;9.63;;;1.00;99.90;;;;;;6229003;22;20394;-91
2021/01/09 06:33:57;;;;;;;11.73;8.97;;;1.00;99.90;;;;;;6228510;22;20812;-89
2021/01/09 06:36:25;;;;;;;14.23;9.83;;;1.00;99.90;;;;;;6226362;23;20721;-88
2021/01/09 06:38:57;;;;;;;12.47;9.03;;;1.00;99.90;;;;;;6226381;23;20911;-89
2021/01/09 06:41:25;;;;;;;14.03;10.03;;;1.10;99.90;;;;;;6226507;23;20791;-90
2021/01/09 06:43:52;;;;;;;12.77;10.20;;;1.00;99.90;;;;;;6226407;23;20807;-90
2021/01/09 06:46:33;;;;;;;16.00;11.50;;;0.90;99.90;;;;;;6229031;22;21236;-90
2021/01/09 06:48:59;;;;;;;15.27;10.33;;;0.80;99.90;;;;;;6228696;22;20955;-90
2021/01/09 06:51:37;;;;;;;13.83;9.97;;;0.90;99.90;;;;;;6226616;22;20394;-89
2021/01/09 06:54:14;;;;;;;13.33;9.30;;;0.90;99.90;;;;;;6227865;23;20725;-89
2021/01/09 06:56:44;;;;;;;14.10;9.80;;;1.00;99.90;;;;;;6226675;23;20992;-90
2021/01/09 06:59:30;;;;;;;11.30;8.87;;;1.00;99.90;;;;;;6228917;22;20390;-90
2021/01/09 07:02:18;;;;;;;11.50;9.43;;;1.10;99.90;;;;;;6228443;23;20848;-89
2021/01/09 07:04:57;;;;;;;12.70;9.47;;;1.10;99.90;;;;;;6226887;23;20390;-89
2021/01/09 07:07:32;;;;;;;13.23;9.20;;;1.10;99.90;;;;;;6227136;23;20445;-89
2021/01/09 07:10:12;;;;;;;11.80;9.50;;;1.00;99.90;;;;;;6228398;22;20882;-89
2021/01/09 07:12:40;;;;;;;14.07;9.80;;;1.00;99.90;;;;;;6226220;23;20409;-89
2021/01/09 07:15:08;;;;;;;12.63;9.80;;;1.00;99.90;;;;;;6226274;23;20398;-88
2021/01/09 07:17:39;;;;;;;13.33;10.20;;;1.00;99.90;;;;;;6226600;23;20468;-88
2021/01/09 07:20:09;;;;;;;14.70;10.13;;;1.00;99.90;;;;;;6226226;23;20401;-88
2021/01/09 07:22:40;;;;;;;14.37;10.30;;;0.90;99.90;;;;;;6227833;22;20448;-88
2021/01/09 07:25:08;;;;;;;16.17;12.23;;;0.90;99.90;;;;;;6226438;23;20426;-89
2021/01/09 07:27:44;;;;;;;17.97;11.60;;;0.90;99.90;;;;;;6230259;22;20679;-90
2021/01/09 07:30:14;;;;;;;18.17;11.90;;;0.90;99.90;;;;;;6227654;23;20428;-89
2021/01/09 07:32:42;;;;;;;18.13;10.33;;;1.00;99.90;;;;;;6229948;22;20394;-90
2021/01/09 07:35:08;;;;;;;13.33;10.90;;;1.00;99.90;;;;;;6227000;23;20389;-88
2021/01/09 07:37:39;;;;;;;16.10;12.17;;;1.10;99.90;;;;;;6231153;22;20489;-88
2021/01/09 07:40:14;;;;;;;15.10;11.83;;;1.00;99.90;;;;;;6231158;22;20810;-89
2021/01/09 07:42:41;;;;;;;13.97;10.60;;;1.10;99.90;;;;;;6229359;22;20484;-90
2021/01/09 07:45:12;;;;;;;20.40;12.93;;;1.20;99.90;;;;;;6227894;23;20895;-89
2021/01/09 07:47:40;;;;;;;13.23;10.00;;;1.10;99.90;;;;;;6230048;22;20394;-88
2021/01/09 07:50:08;;;;;;;13.97;11.13;;;1.30;99.90;;;;;;6229630;22;20389;-88
2021/01/09 07:52:34;;;;;;;15.47;11.97;;;1.30;99.90;;;;;;6228975;22;20393;-89
2021/01/09 07:55:00;;;;;;;17.53;12.73;;;1.20;99.90;;;;;;6230273;22;20720;-89
2021/01/09 07:57:26;;;;;;;16.97;12.80;;;1.20;99.90;;;;;;6230341;22;20921;-88
2021/01/09 07:59:55;;;;;;;15.23;11.13;;;1.20;99.90;;;;;;6228900;23;20390;-86
2021/01/09 08:02:34;;;;;;;17.23;12.77;;;1.20;99.90;;;;;;6227625;23;20195;-88
2021/01/09 08:05:04;;;;;;;20.63;14.63;;;1.20;99.90;;;;;;6229400;22;20392;-88
2021/01/09 08:07:30;;;;;;;22.30;14.13;;;1.20;99.90;;;;;;6243747;22;20397;-89
2021/01/09 08:09:56;;;;;;;17.90;13.20;;;1.20;99.90;;;;;;6233161;22;21122;-90
2021/01/09 08:12:28;;;;;;;20.63;14.00;;;1.20;99.90;;;;;;6233669;22;20228;-87
2021/01/09 08:14:57;;;;;;;17.33;13.77;;;1.20;99.90;;;;;;6232839;22;20809;-87
2021/01/09 08:17:23;;;;;;;17.33;12.70;;;1.20;99.90;;;;;;6259849;22;20380;-88
2021/01/09 08:19:49;;;;;;;16.90;11.70;;;1.20;99.90;;;;;;6232387;22;20851;-87
2021/01/09 08:22:15;;;;;;;17.20;13.13;;;1.20;99.90;;;;;;6260002;22;21147;-88
2021/01/09 08:24:41;;;;;;;16.60;12.60;;;1.30;99.90;;;;;;6259589;22;20568;-87
2021/01/09 08:27:07;;;;;;;16.70;11.70;;;1.30;99.90;;;;;;6259879;22;20397;-87
2021/01/09 08:29:33;;;;;;;16.40;12.20;;;1.30;99.90;;;;;;6260677;22;20393;-87
2021/01/09 08:31:59;;;;;;;15.33;12.23;;;1.30;99.90;;;;;;6258716;22;20871;-86
2021/01/09 08:34:25;;;;;;;16.87;12.13;;;1.40;99.90;;;;;;6258601;22;20728;-87
2021/01/09 08:36:56;;;;;;;17.43;12.90;;;1.40;99.90;;;;;;6259960;22;20971;-87
2021/01/09 08:39:21;;;;;;;16.80;12.63;;;1.50;99.90;;;;;;6259793;22;20215;-85
2021/01/09 08:41:47;;;;;;;16.23;11.50;;;1.50;99.90;;;;;;6259561;22;20438;-86
2021/01/09 08:44:15;;;;;;;16.87;12.47;;;1.60;99.90;;;;;;6257441;22;20694;-87
2021/01/09 08:46:44;;;;;;;16.60;13.07;;;1.60;99.90;;;;;;6259884;22;20191;-86
2021/01/09 08:49:27;;;;;;;19.37;13.80;;;1.60;99.90;;;;;;6259563;22;20385;-89
2021/01/09 08:52:04;;;;;;;15.33;12.43;;;1.60;99.90;;;;;;6258567;22;20378;-88
2021/01/09 08:54:31;;;;;;;17.77;13.17;;;1.50;99.90;;;;;;6258541;22;20609;-89
2021/01/09 08:56:57;;;;;;;19.30;13.77;;;1.50;99.90;;;;;;6231367;22;20468;-86
2021/01/09 08:59:23;;;;;;;19.63;14.67;;;1.60;99.90;;;;;;6232282;22;20412;-89
2021/01/09 09:01:51;;;;;;;17.50;14.23;;;1.60;99.90;;;;;;6232907;22;20437;-86
2021/01/09 09:04:20;;;;;;;21.13;14.17;;;1.70;99.90;;;;;;6259828;22;20719;-87
2021/01/09 09:06:53;;;;;;;20.00;14.60;;;1.60;99.90;;;;;;6259783;22;20405;-88
2021/01/09 09:09:19;;;;;;;23.23;15.13;;;1.70;99.90;;;;;;6259730;22;20389;-87
2021/01/09 09:11:52;;;;;;;18.90;14.90;;;1.70;99.90;;;;;;6232302;22;20715;-88
2021/01/09 09:14:19;;;;;;;20.47;15.30;;;1.90;99.90;;;;;;6259933;22;20558;-87
2021/01/09 09:16:44;;;;;;;23.97;16.40;;;2.00;99.90;;;;;;6231966;22;20411;-89
2021/01/09 09:19:11;;;;;;;25.33;17.13;;;2.00;99.90;;;;;;6232025;22;20478;-89
2021/01/09 09:21:42;;;;;;;22.13;14.77;;;2.10;99.90;;;;;;6231271;22;20200;-87
2021/01/09 09:24:08;;;;;;;21.33;15.00;;;2.20;99.90;;;;;;6262215;22;20387;-86
2021/01/09 09:26:35;;;;;;;20.00;14.40;;;2.30;99.90;;;;;;6235392;22;20724;-86
2021/01/09 09:29:01;;;;;;;16.00;13.07;;;2.40;99.90;;;;;;6257912;22;20391;-86
2021/01/09 09:31:35;;;;;;;22.30;13.50;;;2.60;99.90;;;;;;6259132;22;20411;-85
2021/01/09 09:34:03;;;;;;;16.67;12.40;;;2.70;99.90;;;;;;6257464;22;20382;-85
2021/01/09 09:36:30;;;;;;;18.23;13.50;;;2.90;99.90;;;;;;6232536;22;20453;-85
2021/01/09 09:38:56;;;;;;;18.40;13.90;;;2.80;99.90;;;;;;6258200;22;20846;-85
2021/01/09 09:41:21;;;;;;;18.50;13.60;;;2.80;99.90;;;;;;6258683;22;20446;-84
2021/01/09 09:43:58;;;;;;;20.93;14.93;;;2.90;99.90;;;;;;6231162;22;20436;-87
2021/01/09 09:46:24;;;;;;;21.83;13.23;;;3.10;99.90;;;;;;6231097;22;20180;-86
2021/01/09 09:48:58;;;;;;;20.67;14.53;;;3.10;99.90;;;;;;6231458;22;20396;-85
2021/01/09 09:51:32;;;;;;;17.60;13.37;;;3.10;99.90;;;;;;6230049;22;20458;-85
2021/01/09 09:53:58;;;;;;;18.33;14.73;;;3.20;99.90;;;;;;6228013;22;20385;-85
2021/01/09 09:56:45;;;;;;;20.17;14.47;;;3.30;99.90;;;;;;6235689;22;20745;-95
2021/01/09 09:59:30;;;;;;;21.07;15.17;;;3.50;99.90;;;;;;6227086;22;20173;-87
2021/01/09 10:02:00;;;;;;;20.10;14.20;;;3.50;99.90;;;;;;6231344;22;20444;-89
2021/01/09 10:04:29;;;;;;;17.60;13.30;;;3.40;99.90;;;;;;6224265;23;20922;-88
2021/01/09 10:06:55;;;;;;;23.47;14.87;;;3.40;99.90;;;;;;6223370;23;20413;-86
2021/01/09 10:09:23;;;;;;;21.77;16.30;;;3.40;99.90;;;;;;6224251;23;20402;-86
2021/01/09 10:11:51;;;;;;;30.13;21.47;;;3.40;99.90;;;;;;6225822;23;20393;-86
2021/01/09 10:14:19;;;;;;;22.10;14.53;;;3.40;99.90;;;;;;6225006;23;20962;-84
2021/01/09 10:16:52;;;;;;;21.30;15.27;;;3.50;99.90;;;;;;6176371;23;20401;-87
2021/01/09 10:19:19;;;;;;;18.00;13.30;;;3.70;99.90;;;;;;6225524;23;20698;-91
2021/01/09 10:21:45;;;;;;;19.83;13.80;;;3.90;99.90;;;;;;6226120;23;20777;-86
2021/01/09 10:24:13;;;;;;;18.80;13.40;;;3.90;99.90;;;;;;6226756;23;20398;-86
2021/01/09 10:26:43;;;;;;;21.10;14.00;;;3.90;99.90;;;;;;6225466;23;20672;-88
2021/01/09 10:29:25;;;;;;;16.43;12.73;;;4.10;99.90;;;;;;6227521;22;20753;-88
2021/01/09 10:32:09;;;;;;;19.67;13.80;;;4.20;99.90;;;;;;6227364;22;20378;-87
2021/01/09 10:34:35;;;;;;;18.57;13.50;;;4.10;99.90;;;;;;6225480;22;20891;-87
2021/01/09 10:37:07;;;;;;;18.63;13.57;;;4.40;99.90;;;;;;6226349;23;20422;-87
2021/01/09 10:39:38;;;;;;;16.63;12.83;;;5.10;99.90;;;;;;6225570;23;20196;-89
2021/01/09 10:42:10;;;;;;;21.13;14.07;;;5.70;99.90;;;;;;6227467;23;20536;-89
2021/01/09 10:44:38;;;;;;;19.90;13.30;;;5.80;99.90;;;;;;6226078;23;20390;-88
2021/01/09 10:47:06;;;;;;;19.70;12.70;;;5.80;99.90;;;;;;6226718;23;20401;-88
2021/01/09 10:49:32;;;;;;;16.60;12.47;;;5.60;99.90;;;;;;6225611;23;20971;-89
2021/01/09 10:52:07;;;;;;;16.80;11.80;;;5.40;99.90;;;;;;6225675;23;20421;-94
2021/01/09 10:54:34;;;;;;;14.87;9.70;;;5.30;99.90;;;;;;6226388;23;20171;-89
2021/01/09 10:56:59;;;;;;;18.57;12.00;;;5.00;99.90;;;;;;6225865;22;20425;-89
2021/01/09 10:59:25;;;;;;;15.43;10.67;;;4.70;99.90;;;;;;6224854;23;20396;-86
2021/01/09 11:01:55;;;;;;;18.13;10.77;;;4.50;99.90;;;;;;6228044;23;20660;-84
2021/01/09 11:04:22;;;;;;;14.40;10.80;;;4.10;99.90;;;;;;6227178;23;20460;-84
2021/01/09 11:06:47;;;;;;;14.67;10.83;;;4.00;99.90;;;;;;6233907;22;20739;-83
2021/01/09 11:09:13;;;;;;;17.80;11.53;;;3.90;99.90;;;;;;6232688;22;20400;-86
2021/01/09 11:11:39;;;;;;;16.57;11.80;;;3.80;99.90;;;;;;6232537;22;20207;-87
2021/01/09 11:14:04;;;;;;;13.73;10.83;;;3.70;99.90;;;;;;6231340;22;20242;-84
2021/01/09 11:16:30;;;;;;;13.87;9.90;;;3.60;99.90;;;;;;6168496;22;20207;-86
2021/01/09 11:18:56;;;;;;;13.10;9.70;;;3.70;99.90;;;;;;6136660;23;20645;-87
2021/01/09 11:36:54;;;;;;;9.90;8.90;;;14.10;54.60;;;;;;6198374;22;20563;-85
2021/01/09 11:39:20;;;;;;;10.10;9.10;;;12.10;56.30;;;;;;6171537;23;20449;-86
2021/01/09 11:41:46;;;;;;;10.90;9.80;;;9.80;62.70;;;;;;6172447;23;20402;-85
2021/01/09 11:44:12;;;;;;;9.77;8.50;;;8.20;76.30;;;;;;6171589;23;20255;-84
2021/01/09 11:46:38;;;;;;;8.70;7.80;;;7.10;88.10;;;;;;6171675;23;20485;-84
2021/01/09 11:49:03;;;;;;;9.20;8.03;;;6.30;91.70;;;;;;6172894;23;20238;-84
2021/01/09 11:51:29;;;;;;;9.13;7.60;;;5.70;95.00;;;;;;6172631;23;20471;-94
2021/01/09 11:53:55;;;;;;;12.10;9.57;;;5.40;96.80;;;;;;6178964;23;20641;-85
2021/01/09 11:56:22;;;;;;;12.70;10.50;;;5.30;99.30;;;;;;6177616;23;20211;-86
2021/01/09 11:58:47;;;;;;;14.37;11.07;;;5.50;99.90;;;;;;6170977;23;20180;-88
2021/01/09 12:01:13;;;;;;;13.97;10.40;;;5.50;99.90;;;;;;6172706;23;20974;-89
2021/01/09 12:03:39;;;;;;;16.40;11.47;;;5.30;99.90;;;;;;6172778;23;20688;-89
2021/01/09 12:06:05;;;;;;;16.60;11.73;;;4.90;99.90;;;;;;6171313;23;20393;-88
2021/01/09 12:08:30;;;;;;;14.07;10.60;;;4.40;99.90;;;;;;6170580;23;20168;-86
2021/01/09 12:10:56;;;;;;;13.13;10.13;;;4.20;99.90;;;;;;6172435;23;20446;-83
2021/01/09 12:13:22;;;;;;;13.67;10.83;;;4.30;99.90;;;;;;6172040;23;20265;-86
2021/01/09 12:15:48;;;;;;;11.40;8.87;;;4.60;99.90;;;;;;6171573;23;20233;-86
2021/01/09 12:18:14;;;;;;;13.77;9.10;;;4.80;99.90;;;;;;6172286;23;20169;-86
2021/01/09 12:20:40;;;;;;;10.20;7.53;;;4.90;99.90;;;;;;6172281;23;20426;-87
2021/01/09 12:23:05;;;;;;;9.60;8.23;;;4.80;99.90;;;;;;6172246;23;20391;-86
2021/01/09 12:25:31;;;;;;;11.03;8.40;;;4.80;99.90;;;;;;6172587;23;20191;-86
2021/01/09 12:27:57;;;;;;;10.97;7.90;;;4.90;99.90;;;;;;6172612;23;20529;-87
2021/01/09 12:30:22;;;;;;;13.43;9.60;;;4.70;99.90;;;;;;6172703;23;20165;-86
2021/01/09 12:32:48;;;;;;;15.43;8.27;;;4.50;99.90;;;;;;6169989;23;20168;-87
2021/01/09 12:35:14;;;;;;;10.97;7.93;;;4.10;99.90;;;;;;6171842;23;20629;-85
2021/01/09 12:37:39;;;;;;;11.13;8.00;;;3.80;99.90;;;;;;6171733;23;20175;-86
2021/01/09 12:40:09;;;;;;;10.10;8.23;;;3.40;99.90;;;;;;6172553;23;20164;-85
2021/01/09 12:42:35;;;;;;;10.57;8.00;;;3.10;99.90;;;;;;6171576;23;20182;-85
2021/01/09 12:45:02;;;;;;;10.70;8.27;;;2.90;99.90;;;;;;6171792;23;20725;-86
2021/01/09 12:47:27;;;;;;;10.53;7.73;;;2.70;99.90;;;;;;6172020;23;20412;-86
2021/01/09 12:49:53;;;;;;;11.53;8.40;;;2.60;99.90;;;;;;6172346;23;20969;-86
2021/01/09 12:52:19;;;;;;;11.50;7.07;;;2.60;99.90;;;;;;6171418;23;20229;-86
2021/01/09 12:54:44;;;;;;;9.90;7.23;;;2.90;99.90;;;;;;6171867;23;20166;-86
2021/01/09 12:57:10;;;;;;;8.77;7.77;;;4.60;99.90;;;;;;6171015;23;20194;-86
2021/01/09 12:59:35;;;;;;;9.30;5.83;;;7.10;99.00;;;;;;6171876;23;20212;-86
2021/01/09 13:02:01;;;;;;;7.33;5.63;;;9.70;89.60;;;;;;6171695;23;20222;-86
2021/01/09 13:04:26;;;;;;;6.77;6.03;;;11.10;68.50;;;;;;6171535;23;20693;-87
2021/01/09 13:06:54;;;;;;;8.67;6.53;;;11.90;59.00;;;;;;6171935;23;20199;-88
2021/01/09 13:09:22;;;;;;;7.97;6.57;;;12.00;55.60;;;;;;6171531;23;20167;-89
2021/01/09 13:11:55;;;;;;;8.00;7.13;;;12.10;54.20;;;;;;6171439;23;20421;-88
2021/01/09 13:14:21;;;;;;;7.90;6.40;;;12.20;54.30;;;;;;6170013;23;20457;-88
2021/01/09 13:16:49;;;;;;;9.33;6.80;;;11.30;55.20;;;;;;6171275;23;20406;-87
2021/01/09 13:19:20;;;;;;;7.47;6.73;;;9.20;59.80;;;;;;6171456;23;20833;-87
2021/01/09 13:21:53;;;;;;;7.00;6.07;;;7.10;74.20;;;;;;6170289;23;20451;-88
2021/01/09 13:24:20;;;;;;;6.20;5.43;;;5.90;92.20;;;;;;6172065;23;20723;-88
2021/01/09 13:26:45;;;;;;;7.10;5.73;;;6.80;93.10;;;;;;6172179;23;20406;-91
2021/01/09 13:29:12;;;;;;;6.83;6.17;;;6.70;91.50;;;;;;6171991;23;20884;-89
2021/01/09 13:31:42;;;;;;;9.03;6.30;;;6.00;92.00;;;;;;6172905;23;20227;-89
2021/01/09 13:34:08;;;;;;;6.43;5.67;;;5.20;93.20;;;;;;6172250;23;20435;-89
2021/01/09 13:36:35;;;;;;;6.47;5.33;;;4.50;96.80;;;;;;6170884;23;20399;-88
2021/01/09 13:39:02;;;;;;;6.43;5.73;;;4.10;98.10;;;;;;6170801;23;20545;-87
2021/01/09 13:41:28;;;;;;;6.40;5.70;;;3.90;99.30;;;;;;6171282;23;20461;-86
2021/01/09 13:43:54;;;;;;;7.87;6.30;;;3.70;99.40;;;;;;6169987;23;20399;-87
2021/01/09 13:46:27;;;;;;;8.97;6.60;;;3.40;99.90;;;;;;6171661;23;20159;-88
2021/01/09 13:48:53;;;;;;;14.87;12.40;;;2.90;99.90;;;;;;6171217;23;20193;-87
2021/01/09 13:51:31;;;;;;;12.33;8.40;;;2.80;99.90;;;;;;6170648;23;20571;-87
2021/01/09 13:53:58;;;;;;;10.70;7.13;;;2.70;99.90;;;;;;6170503;23;20409;-88
2021/01/09 13:56:34;;;;;;;9.13;7.43;;;2.70;99.90;;;;;;6171743;23;20416;-89
2021/01/09 13:59:04;;;;;;;10.80;7.00;;;2.80;99.90;;;;;;6171342;23;20411;-88
2021/01/09 14:01:30;;;;;;;10.27;7.53;;;3.00;99.90;;;;;;6171122;23;20935;-90
2021/01/09 14:03:55;;;;;;;9.87;7.53;;;3.10;99.90;;;;;;6171579;23;20391;-86
2021/01/09 14:06:21;;;;;;;8.80;6.90;;;3.10;99.90;;;;;;6171362;23;20205;-88
2021/01/09 14:08:58;;;;;;;8.80;6.87;;;3.10;99.90;;;;;;6152900;23;20500;-87
2021/01/09 14:11:27;;;;;;;9.50;7.70;;;3.10;99.90;;;;;;6174028;23;20469;-88
2021/01/09 14:14:15;;;;;;;11.27;8.03;;;3.20;99.90;;;;;;6162577;23;20401;-89
2021/01/09 14:16:41;;;;;;;11.10;7.90;;;3.20;99.90;;;;;;6171178;23;20616;-88
2021/01/09 14:19:06;;;;;;;10.40;7.90;;;3.00;99.90;;;;;;6172032;23;20412;-88
2021/01/09 14:21:32;;;;;;;11.00;8.07;;;2.80;99.90;;;;;;6172010;23;20202;-88
2021/01/09 14:23:58;;;;;;;10.10;7.07;;;2.90;99.90;;;;;;6171047;23;20267;-89
2021/01/09 14:26:28;;;;;;;11.63;7.50;;;2.80;99.90;;;;;;6171964;23;20484;-89
2021/01/09 14:28:54;;;;;;;11.50;7.40;;;2.60;99.90;;;;;;6171220;23;20393;-89
2021/01/09 14:31:25;;;;;;;9.20;6.70;;;2.40;99.90;;;;;;6171569;23;20408;-89
2021/01/09 14:33:53;;;;;;;10.60;7.10;;;2.40;99.90;;;;;;6167954;23;20472;-88
2021/01/09 14:36:21;;;;;;;11.00;8.20;;;2.30;99.90;;;;;;6172724;23;20447;-89
2021/01/09 14:41:30;;;;;;;8.90;6.60;;;2.50;99.90;;;;;;6199486;23;20832;-87
2021/01/09 14:43:55;;;;;;;8.53;6.77;;;2.70;99.90;;;;;;6173046;23;20398;-87
2021/01/09 14:46:21;;;;;;;9.33;6.50;;;3.00;99.90;;;;;;6173277;23;20213;-88
2021/01/09 14:48:48;;;;;;;10.40;7.23;;;3.00;99.90;;;;;;6173405;23;20209;-87
2021/01/09 14:51:21;;;;;;;8.57;6.83;;;2.70;99.90;;;;;;6173260;23;20166;-87
2021/01/09 14:53:47;;;;;;;8.13;6.40;;;2.40;99.90;;;;;;6173290;23;20397;-88
2021/01/09 14:56:13;;;;;;;9.10;6.60;;;2.20;99.90;;;;;;6172350;23;20424;-87
2021/01/09 14:58:39;;;;;;;8.27;6.73;;;2.00;99.90;;;;;;6172877;23;20472;-86
2021/01/09 15:01:04;;;;;;;10.97;8.37;;;1.80;99.90;;;;;;6173746;23;20653;-86
2021/01/09 15:03:30;;;;;;;10.40;6.70;;;1.70;99.90;;;;;;6167394;23;20430;-85
2021/01/09 15:05:56;;;;;;;10.87;7.10;;;1.60;99.90;;;;;;6168684;23;20510;-87
2021/01/09 15:08:21;;;;;;;11.40;8.53;;;1.60;99.90;;;;;;6173810;23;20981;-87
2021/01/09 15:10:47;;;;;;;9.47;6.67;;;1.50;99.90;;;;;;6173455;23;20183;-87
2021/01/09 15:13:13;;;;;;;9.53;7.60;;;1.40;99.90;;;;;;6172349;23;20538;-87
2021/01/09 15:15:38;;;;;;;8.80;6.80;;;1.50;99.90;;;;;;6172691;23;20479;-87
2021/01/09 15:18:04;;;;;;;10.37;7.57;;;1.40;99.90;;;;;;6173480;23;20545;-87
2021/01/09 15:20:30;;;;;;;12.43;7.70;;;1.30;99.90;;;;;;6172984;23;20501;-89
2021/01/09 15:22:58;;;;;;;14.80;7.80;;;1.20;99.90;;;;;;6173524;23;20174;-88
2021/01/09 15:25:26;;;;;;;10.53;7.20;;;1.20;99.90;;;;;;6174286;23;20446;-84
2021/01/09 15:27:53;;;;;;;12.13;8.03;;;1.10;99.90;;;;;;6172861;23;20943;-85
2021/01/09 15:30:22;;;;;;;11.17;7.83;;;1.00;99.90;;;;;;6172824;23;20399;-86
2021/01/09 15:32:48;;;;;;;11.13;7.50;;;1.00;99.90;;;;;;6148708;23;20420;-87
2021/01/09 15:35:13;;;;;;;11.70;8.30;;;0.90;99.90;;;;;;6171950;23;20506;-84
2021/01/09 15:37:39;;;;;;;10.60;7.57;;;0.90;99.90;;;;;;6170977;23;20172;-86
2021/01/09 15:40:06;;;;;;;12.63;8.93;;;0.80;99.90;;;;;;6170967;23;20168;-83
2021/01/09 15:42:31;;;;;;;8.37;7.03;;;0.80;99.90;;;;;;6170061;23;20446;-84
2021/01/09 15:44:57;;;;;;;12.90;8.90;;;0.80;99.90;;;;;;6170225;23;20716;-83
2021/01/09 15:47:23;;;;;;;9.80;7.20;;;0.80;99.90;;;;;;6167579;23;20180;-82
2021/01/09 15:49:49;;;;;;;11.23;7.67;;;0.70;99.90;;;;;;6170357;23;20405;-80
2021/01/09 15:52:14;;;;;;;11.57;8.07;;;0.70;99.90;;;;;;6198746;23;20263;-80
2021/01/09 15:54:40;;;;;;;10.73;7.37;;;1.10;99.90;;;;;;6170008;23;20164;-79
2021/01/09 15:57:06;;;;;;;10.63;7.40;;;1.30;99.90;;;;;;6171171;23;20609;-79
2021/01/09 15:59:31;;;;;;;13.17;8.23;;;1.30;99.90;;;;;;6170945;23;20916;-79
2021/01/09 16:01:57;;;;;;;12.40;8.40;;;1.50;99.90;;;;;;6171208;23;20192;-85
2021/01/09 16:04:23;;;;;;;9.40;7.50;;;1.60;99.90;;;;;;6171808;23;20243;-84
2021/01/09 16:06:48;;;;;;;12.30;9.27;;;1.30;99.90;;;;;;6169944;23;20168;-83
2021/01/09 16:09:14;;;;;;;12.63;8.93;;;1.00;99.90;;;;;;6173211;23;20164;-82
2021/01/09 16:11:39;;;;;;;12.03;8.83;;;0.80;99.90;;;;;;6170543;23;20171;-85
2021/01/09 16:14:05;;;;;;;11.30;8.83;;;0.60;99.90;;;;;;6170019;23;20163;-85